createdAt,value
2023-03-22T00:00:37.310Z,88.86
2023-03-22T00:01:54.433Z,88.90
2023-03-22T00:02:57.368Z,88.49
2023-03-22T00:04:00.497Z,88.42
2023-03-22T00:05:03.400Z,88.18
2023-03-22T00:06:06.706Z,88.13
2023-03-22T00:07:09.473Z,88.23
2023-03-22T00:08:13.506Z,88.28
2023-03-22T00:09:16.299Z,88.36
2023-03-22T00:10:19.035Z,88.47
2023-03-22T00:11:24.338Z,88.52
2023-03-22T00:12:27.075Z,88.61
2023-03-22T00:13:30.393Z,88.70
2023-03-22T00:14:33.214Z,88.79
2023-03-22T00:15:36.527Z,88.95
2023-03-22T00:16:39.606Z,88.97
2023-03-22T00:17:42.365Z,88.93
2023-03-22T00:18:45.535Z,88.80
2023-03-22T00:19:49.616Z,88.80
2023-03-22T00:20:57.443Z,88.85
2023-03-22T00:22:01.224Z,88.93
2023-03-22T00:23:04.051Z,89.05
2023-03-22T00:24:07.228Z,88.81
2023-03-22T00:25:10.856Z,88.79
2023-03-22T00:26:15.483Z,88.63
2023-03-22T00:27:18.614Z,88.69
2023-03-22T00:28:21.887Z,88.71
2023-03-22T00:29:24.632Z,88.60
2023-03-22T00:30:29.323Z,88.72
2023-03-22T00:31:32.159Z,88.69
2023-03-22T00:32:36.456Z,88.78
2023-03-22T00:33:39.335Z,88.72
2023-03-22T00:34:42.116Z,88.69
2023-03-22T00:35:53.110Z,88.66
2023-03-22T00:36:56.689Z,88.76
2023-03-22T00:38:14.173Z,88.69
2023-03-22T00:39:18.024Z,88.70
2023-03-22T00:40:20.805Z,88.64
2023-03-22T00:41:24.396Z,88.56
2023-03-22T00:42:27.449Z,88.60
2023-03-22T00:43:30.194Z,88.62
2023-03-22T00:44:33.118Z,88.78
2023-03-22T00:45:40.975Z,88.69
2023-03-22T00:46:43.769Z,88.77
2023-03-22T00:47:46.590Z,88.71
2023-03-22T00:48:49.750Z,88.69
2023-03-22T00:49:52.534Z,88.73
2023-03-22T00:50:55.322Z,88.98
2023-03-22T00:51:58.254Z,89.02
2023-03-22T00:53:01.319Z,89.00
2023-03-22T00:54:04.150Z,89.07
2023-03-22T00:55:07.902Z,88.96
2023-03-22T00:56:16.083Z,88.99
2023-03-22T00:57:41.607Z,88.96
2023-03-22T00:58:44.431Z,88.97
2023-03-22T00:59:47.359Z,89.14
2023-03-22T01:00:50.391Z,89.02
2023-03-22T01:01:53.266Z,88.99
2023-03-22T01:02:59.832Z,89.06
2023-03-22T01:04:03.096Z,89.20
2023-03-22T01:05:07.531Z,89.05
2023-03-22T01:06:11.485Z,89.12
2023-03-22T01:07:21.569Z,89.12
2023-03-22T01:08:24.532Z,89.13
2023-03-22T01:09:29.629Z,89.35
2023-03-22T01:10:32.443Z,89.47
2023-03-22T01:11:35.341Z,89.59
2023-03-22T01:12:38.926Z,89.57
2023-03-22T01:13:41.993Z,89.72
2023-03-22T01:14:45.271Z,89.89
2023-03-22T01:15:51.041Z,90.07
2023-03-22T01:16:57.382Z,90.00
2023-03-22T01:18:00.685Z,90.08
2023-03-22T01:19:03.665Z,90.10
2023-03-22T01:20:07.886Z,89.85
2023-03-22T01:21:10.703Z,89.98
2023-03-22T01:22:13.686Z,89.93
2023-03-22T01:23:16.632Z,89.79
2023-03-22T01:24:19.601Z,89.84
2023-03-22T01:25:22.456Z,89.67
2023-03-22T01:26:25.227Z,89.57
2023-03-22T01:27:28.033Z,89.54
2023-03-22T01:28:31.250Z,89.52
2023-03-22T01:29:35.436Z,89.40
2023-03-22T01:30:41.958Z,89.22
2023-03-22T01:31:45.043Z,89.09
2023-03-22T01:32:48.657Z,89.08
2023-03-22T01:33:53.038Z,89.29
2023-03-22T01:34:57.624Z,89.21
2023-03-22T01:36:01.941Z,89.04
2023-03-22T01:37:05.361Z,89.13
2023-03-22T01:38:08.860Z,89.07
2023-03-22T01:39:15.321Z,89.09
2023-03-22T01:40:19.132Z,89.23
2023-03-22T01:41:22.996Z,89.25
2023-03-22T01:42:27.016Z,89.22
2023-03-22T01:43:30.573Z,89.37
2023-03-22T01:44:33.878Z,89.48
2023-03-22T01:45:47.509Z,89.37
2023-03-22T01:46:51.489Z,89.36
2023-03-22T01:48:15.719Z,89.46
2023-03-22T01:49:29.224Z,89.44
2023-03-22T01:50:32.464Z,89.62
2023-03-22T01:51:35.621Z,89.45
2023-03-22T01:53:00.510Z,89.44
2023-03-22T01:54:10.823Z,89.56
2023-03-22T01:55:13.977Z,89.62
2023-03-22T01:56:25.601Z,89.53
2023-03-22T01:57:29.513Z,89.46
2023-03-22T01:58:37.135Z,89.47
2023-03-22T01:59:42.983Z,89.64
2023-03-22T02:00:52.965Z,89.61
2023-03-22T02:02:22.290Z,89.71
2023-03-22T02:04:00.037Z,89.65
2023-03-22T02:05:04.215Z,89.68
2023-03-22T02:06:07.610Z,89.75
2023-03-22T02:07:15.808Z,89.93
2023-03-22T02:08:20.292Z,89.81
2023-03-22T02:09:41.358Z,89.89
2023-03-22T02:10:44.690Z,89.81
2023-03-22T02:12:13.417Z,89.93
2023-03-22T02:14:13.065Z,90.01
2023-03-22T02:15:50.842Z,89.90
2023-03-22T02:18:16.556Z,89.78
2023-03-22T02:19:30.633Z,89.91
2023-03-22T02:20:55.270Z,89.87
2023-03-22T02:22:30.593Z,89.81
2023-03-22T02:24:05.537Z,89.80
2023-03-22T02:25:20.168Z,89.76
2023-03-22T02:26:44.130Z,89.69
2023-03-22T02:28:08.113Z,89.82
2023-03-22T02:29:45.165Z,89.81
2023-03-22T02:31:29.005Z,89.89
2023-03-22T02:32:43.726Z,89.89
2023-03-22T02:33:55.826Z,89.99
2023-03-22T02:35:33.507Z,89.97
2023-03-22T02:37:01.769Z,89.94
2023-03-22T02:38:38.593Z,89.97
2023-03-22T02:40:10.686Z,89.92
2023-03-22T02:41:35.910Z,89.97
2023-03-22T02:42:55.747Z,89.96
2023-03-22T02:44:01.216Z,89.99
2023-03-22T02:45:14.369Z,90.23
2023-03-22T02:46:32.767Z,90.29
2023-03-22T02:47:38.697Z,90.16
2023-03-22T02:48:47.552Z,90.19
2023-03-22T02:50:03.635Z,90.05
2023-03-22T02:51:15.528Z,90.06
2023-03-22T02:52:44.860Z,90.11
2023-03-22T02:54:03.577Z,90.14
2023-03-22T02:55:13.301Z,90.31
2023-03-22T02:56:33.731Z,90.33
2023-03-22T02:57:52.776Z,90.32
2023-03-22T02:58:59.541Z,90.50
2023-03-22T03:00:10.469Z,90.69
2023-03-22T03:01:20.084Z,90.82
2023-03-22T03:02:23.293Z,90.77
2023-03-22T03:03:30.541Z,91.10
2023-03-22T03:04:37.950Z,91.30
2023-03-22T03:05:48.712Z,91.35
2023-03-22T03:06:55.061Z,91.33
2023-03-22T03:08:02.513Z,91.46
2023-03-22T03:09:06.480Z,91.40
2023-03-22T03:10:11.488Z,91.34
2023-03-22T03:11:14.293Z,91.21
2023-03-22T03:12:23.301Z,91.09
2023-03-22T03:13:27.327Z,90.88
2023-03-22T03:14:32.832Z,90.85
2023-03-22T03:15:39.503Z,90.68
2023-03-22T03:16:42.548Z,90.57
2023-03-22T03:17:51.755Z,90.52
2023-03-22T03:19:02.848Z,90.32
2023-03-22T03:20:42.629Z,90.33
2023-03-22T03:22:09.672Z,90.41
2023-03-22T03:23:24.510Z,90.43
2023-03-22T03:24:37.344Z,90.50
2023-03-22T03:26:04.549Z,90.43
2023-03-22T03:27:10.806Z,90.42
2023-03-22T03:28:38.533Z,90.63
2023-03-22T03:29:48.953Z,90.75
2023-03-22T03:31:03.588Z,90.81
2023-03-22T03:32:15.545Z,90.89
2023-03-22T03:33:22.309Z,90.92
2023-03-22T03:34:34.012Z,90.95
2023-03-22T03:35:46.704Z,91.00
2023-03-22T03:37:02.975Z,91.05
2023-03-22T03:38:13.463Z,91.03
2023-03-22T03:39:18.841Z,91.07
2023-03-22T03:40:29.058Z,90.98
2023-03-22T03:41:34.671Z,90.92
2023-03-22T03:42:41.473Z,91.01
2023-03-22T03:43:46.890Z,90.97
2023-03-22T03:44:50.023Z,90.91
2023-03-22T03:45:54.335Z,90.88
2023-03-22T03:46:57.788Z,90.96
2023-03-22T03:48:05.066Z,91.15
2023-03-22T03:49:10.395Z,91.10
2023-03-22T03:50:16.342Z,91.14
2023-03-22T03:51:19.441Z,91.28
2023-03-22T03:52:24.644Z,91.32
2023-03-22T03:53:28.774Z,91.23
2023-03-22T03:54:31.869Z,91.33
2023-03-22T03:55:34.838Z,91.30
2023-03-22T03:56:37.603Z,91.28
2023-03-22T03:57:40.487Z,91.35
2023-03-22T03:58:43.286Z,91.41
2023-03-22T03:59:46.407Z,91.34
2023-03-22T04:00:57.464Z,91.34
2023-03-22T04:02:23.958Z,91.21
2023-03-22T04:03:27.766Z,91.16
2023-03-22T04:04:48.486Z,91.20
2023-03-22T04:05:51.495Z,91.22
2023-03-22T04:07:00.622Z,91.36
2023-03-22T04:08:05.376Z,91.42
2023-03-22T04:09:09.104Z,91.47
2023-03-22T04:10:15.479Z,91.52
2023-03-22T04:11:18.428Z,91.69
2023-03-22T04:12:23.348Z,91.66
2023-03-22T04:13:44.634Z,91.62
2023-03-22T04:14:50.801Z,91.61
2023-03-22T04:15:58.097Z,91.66
2023-03-22T04:17:01.308Z,91.67
2023-03-22T04:18:07.138Z,91.66
2023-03-22T04:19:10.070Z,91.61
2023-03-22T04:20:14.039Z,91.76
2023-03-22T04:21:17.003Z,91.83
2023-03-22T04:22:25.311Z,91.74
2023-03-22T04:23:28.168Z,91.82
2023-03-22T04:24:31.090Z,91.77
2023-03-22T04:25:33.999Z,91.75
2023-03-22T04:26:43.372Z,91.63
2023-03-22T04:28:13.736Z,91.73
2023-03-22T04:29:16.642Z,91.79
2023-03-22T04:30:24.719Z,91.75
2023-03-22T04:31:37.613Z,91.71
2023-03-22T04:32:51.553Z,91.76
2023-03-22T04:33:56.834Z,91.70
2023-03-22T04:35:06.668Z,91.76
2023-03-22T04:36:10.387Z,91.71
2023-03-22T04:37:27.592Z,91.89
2023-03-22T04:39:05.954Z,91.58
2023-03-22T04:40:16.444Z,91.48
2023-03-22T04:41:31.517Z,91.39
2023-03-22T04:42:34.894Z,91.34
2023-03-22T04:43:50.956Z,91.46
2023-03-22T04:44:53.927Z,91.45
2023-03-22T04:45:58.412Z,91.37
2023-03-22T04:47:04.940Z,91.46
2023-03-22T04:48:10.552Z,91.61
2023-03-22T04:49:13.563Z,91.51
2023-03-22T04:50:17.329Z,91.57
2023-03-22T04:51:25.546Z,91.67
2023-03-22T04:52:41.610Z,91.74
2023-03-22T04:53:44.999Z,91.72
2023-03-22T04:54:48.198Z,91.81
2023-03-22T04:55:50.950Z,91.73
2023-03-22T04:56:54.065Z,91.78
2023-03-22T04:57:58.615Z,91.80
2023-03-22T04:59:01.486Z,91.76
2023-03-22T05:00:08.410Z,91.88
2023-03-22T05:01:13.675Z,91.86
2023-03-22T05:02:17.223Z,91.94
2023-03-22T05:03:21.644Z,92.05
2023-03-22T05:04:27.364Z,92.14
2023-03-22T05:05:36.383Z,92.10
2023-03-22T05:06:39.506Z,92.23
2023-03-22T05:07:47.680Z,92.26
2023-03-22T05:08:50.650Z,92.28
2023-03-22T05:09:54.671Z,92.31
2023-03-22T05:10:59.718Z,92.41
2023-03-22T05:12:02.548Z,92.41
2023-03-22T05:13:21.547Z,92.52
2023-03-22T05:14:24.930Z,92.45
2023-03-22T05:15:28.187Z,92.51
2023-03-22T05:16:31.009Z,92.47
2023-03-22T05:17:33.805Z,92.47
2023-03-22T05:18:42.478Z,92.45
2023-03-22T05:19:45.865Z,92.53
2023-03-22T05:20:48.767Z,92.42
2023-03-22T05:21:58.522Z,92.46
2023-03-22T05:23:10.991Z,92.49
2023-03-22T05:24:14.646Z,92.58
2023-03-22T05:25:19.549Z,92.59
2023-03-22T05:26:24.524Z,92.72
2023-03-22T05:27:31.760Z,92.58
2023-03-22T05:28:54.663Z,92.56
2023-03-22T05:30:14.415Z,92.69
2023-03-22T05:31:23.431Z,92.67
2023-03-22T05:32:33.049Z,92.73
2023-03-22T05:33:36.178Z,92.86
2023-03-22T05:34:42.746Z,92.81
2023-03-22T05:35:54.161Z,92.83
2023-03-22T05:36:58.246Z,92.93
2023-03-22T05:38:08.256Z,93.07
2023-03-22T05:39:16.461Z,93.10
2023-03-22T05:40:19.393Z,93.18
2023-03-22T05:41:23.093Z,93.29
2023-03-22T05:42:26.945Z,93.29
2023-03-22T05:43:29.829Z,93.23
2023-03-22T05:44:32.637Z,93.29
2023-03-22T05:45:42.859Z,93.31
2023-03-22T05:47:00.743Z,93.33
2023-03-22T05:48:10.785Z,93.39
2023-03-22T05:49:13.566Z,93.46
2023-03-22T05:50:19.612Z,93.61
2023-03-22T05:51:25.816Z,93.62
2023-03-22T05:52:29.720Z,93.64
2023-03-22T05:54:04.513Z,93.69
2023-03-22T05:55:14.240Z,93.72
2023-03-22T05:56:17.853Z,93.74
2023-03-22T05:57:21.675Z,93.82
2023-03-22T05:58:25.109Z,93.79
2023-03-22T05:59:28.572Z,93.73
2023-03-22T06:00:35.791Z,93.98
2023-03-22T06:02:04.797Z,94.05
2023-03-22T06:03:08.239Z,94.08
2023-03-22T06:04:14.573Z,94.19
2023-03-22T06:05:26.451Z,94.16
2023-03-22T06:06:29.376Z,94.36
2023-03-22T06:07:40.660Z,94.59
2023-03-22T06:08:57.845Z,94.34
2023-03-22T06:10:07.110Z,94.06
2023-03-22T06:11:10.050Z,93.71
2023-03-22T06:12:15.518Z,93.37
2023-03-22T06:13:21.221Z,93.45
2023-03-22T06:14:25.185Z,93.64
2023-03-22T06:15:54.183Z,92.97
2023-03-22T06:17:00.939Z,92.67
2023-03-22T06:18:03.750Z,92.78
2023-03-22T06:19:11.157Z,92.85
2023-03-22T06:20:15.549Z,92.57
2023-03-22T06:21:24.132Z,91.94
2023-03-22T06:22:27.011Z,91.31
2023-03-22T06:23:29.889Z,90.94
2023-03-22T06:24:33.202Z,90.88
2023-03-22T06:25:36.793Z,90.72
2023-03-22T06:26:40.390Z,90.50
2023-03-22T06:27:43.311Z,90.68
2023-03-22T06:28:46.678Z,90.27
2023-03-22T06:29:51.073Z,90.18
2023-03-22T06:30:56.391Z,90.06
2023-03-22T06:32:20.711Z,89.97
2023-03-22T06:33:23.632Z,89.89
2023-03-22T06:34:34.027Z,90.16
2023-03-22T06:35:37.183Z,90.42
2023-03-22T06:36:42.487Z,90.35
2023-03-22T06:37:52.902Z,90.36
2023-03-22T06:38:57.437Z,90.27
2023-03-22T06:40:00.256Z,90.01
2023-03-22T06:41:03.293Z,90.16
2023-03-22T06:42:06.435Z,90.22
2023-03-22T06:43:09.802Z,90.22
2023-03-22T06:44:14.902Z,89.80
2023-03-22T06:45:33.502Z,90.00
2023-03-22T06:46:37.175Z,89.48
2023-03-22T06:47:46.554Z,89.73
2023-03-22T06:48:59.924Z,89.94
2023-03-22T06:50:02.944Z,90.21
2023-03-22T06:51:25.733Z,90.02
2023-03-22T06:52:29.152Z,89.81
2023-03-22T06:53:33.662Z,89.96
2023-03-22T06:54:36.697Z,89.87
2023-03-22T06:55:40.624Z,89.54
2023-03-22T06:56:48.184Z,89.69
2023-03-22T06:57:51.058Z,89.41
2023-03-22T06:58:54.807Z,89.51
2023-03-22T06:59:57.571Z,89.73
2023-03-22T07:01:01.016Z,89.85
2023-03-22T07:02:04.604Z,89.86
2023-03-22T07:03:07.686Z,89.35
2023-03-22T07:04:33.281Z,89.19
2023-03-22T07:05:36.063Z,89.30
2023-03-22T07:06:38.938Z,89.21
2023-03-22T07:07:41.754Z,89.21
2023-03-22T07:08:44.598Z,89.44
2023-03-22T07:09:48.168Z,89.10
2023-03-22T07:10:51.868Z,89.26
2023-03-22T07:11:57.370Z,89.38
2023-03-22T07:13:00.481Z,89.27
2023-03-22T07:14:03.590Z,89.37
2023-03-22T07:15:24.331Z,89.11
2023-03-22T07:16:35.872Z,89.47
2023-03-22T07:17:41.367Z,89.48
2023-03-22T07:18:44.268Z,89.45
2023-03-22T07:19:47.039Z,89.07
2023-03-22T07:20:51.007Z,89.25
2023-03-22T07:21:53.801Z,89.39
2023-03-22T07:22:57.350Z,89.24
2023-03-22T07:24:01.229Z,89.56
2023-03-22T07:25:05.406Z,89.40
2023-03-22T07:26:08.669Z,89.32
2023-03-22T07:27:14.418Z,89.33
2023-03-22T07:28:17.210Z,89.08
2023-03-22T07:29:19.994Z,89.31
2023-03-22T07:30:22.766Z,89.64
2023-03-22T07:31:26.070Z,89.80
2023-03-22T07:32:33.545Z,89.69
2023-03-22T07:33:45.354Z,89.45
2023-03-22T07:34:48.154Z,89.48
2023-03-22T07:35:52.761Z,89.55
2023-03-22T07:36:57.055Z,89.66
2023-03-22T07:38:00.921Z,89.60
2023-03-22T07:39:08.697Z,89.56
2023-03-22T07:40:15.646Z,89.56
2023-03-22T07:41:18.721Z,89.83
2023-03-22T07:42:38.865Z,89.70
2023-03-22T07:44:07.916Z,89.84
2023-03-22T07:45:23.792Z,89.58
2023-03-22T07:46:45.142Z,89.47
2023-03-22T07:47:58.049Z,89.62
2023-03-22T07:49:33.053Z,89.58
2023-03-22T07:50:59.180Z,89.60
2023-03-22T07:52:02.120Z,89.94
2023-03-22T07:53:05.059Z,89.80
2023-03-22T07:54:07.993Z,89.90
2023-03-22T07:55:13.001Z,89.76
2023-03-22T07:56:15.770Z,89.25
2023-03-22T07:57:18.594Z,89.13
2023-03-22T07:58:30.735Z,89.10
2023-03-22T07:59:34.117Z,89.12
2023-03-22T08:00:37.814Z,89.05
2023-03-22T08:02:03.979Z,88.62
2023-03-22T08:03:14.882Z,88.52
2023-03-22T08:04:55.026Z,88.49
2023-03-22T08:06:21.523Z,88.20
2023-03-22T08:07:27.875Z,88.24
2023-03-22T08:08:30.701Z,88.32
2023-03-22T08:09:33.663Z,88.23
2023-03-22T08:10:37.081Z,88.12
2023-03-22T08:11:40.522Z,88.00
2023-03-22T08:12:43.722Z,87.93
2023-03-22T08:13:55.349Z,88.01
2023-03-22T08:14:58.570Z,87.92
2023-03-22T08:16:02.143Z,87.66
2023-03-22T08:17:06.173Z,87.73
2023-03-22T08:18:09.093Z,87.79
2023-03-22T08:19:15.505Z,87.77
2023-03-22T08:20:18.912Z,87.69
2023-03-22T08:21:27.473Z,87.74
2023-03-22T08:22:31.282Z,87.89
2023-03-22T08:23:53.359Z,87.65
2023-03-22T08:25:19.801Z,87.55
2023-03-22T08:26:23.390Z,87.63
2023-03-22T08:27:27.559Z,87.64
2023-03-22T08:28:30.589Z,87.83
2023-03-22T08:29:33.980Z,87.79
2023-03-22T08:30:38.734Z,87.87
2023-03-22T08:31:42.430Z,87.86
2023-03-22T08:32:46.480Z,87.77
2023-03-22T08:33:49.949Z,87.85
2023-03-22T08:34:52.908Z,87.70
2023-03-22T08:36:25.695Z,87.73
2023-03-22T08:37:34.028Z,87.16
2023-03-22T08:38:37.692Z,87.03
2023-03-22T08:39:43.511Z,87.00
2023-03-22T08:41:05.131Z,86.80
2023-03-22T08:42:07.963Z,86.73
2023-03-22T08:43:11.726Z,86.62
2023-03-22T08:44:14.569Z,86.77
2023-03-22T08:45:17.702Z,86.85
2023-03-22T08:46:26.487Z,86.80
2023-03-22T08:47:30.178Z,86.59
2023-03-22T08:48:38.056Z,86.61
2023-03-22T08:49:45.877Z,86.26
2023-03-22T08:50:54.916Z,86.52
2023-03-22T08:52:07.847Z,86.78
2023-03-22T08:53:18.248Z,86.76
2023-03-22T08:54:28.254Z,86.64
2023-03-22T08:55:45.008Z,86.54
2023-03-22T08:56:48.339Z,86.59
2023-03-22T08:58:01.528Z,86.57
2023-03-22T08:59:24.744Z,86.52
2023-03-22T09:00:47.794Z,86.57
2023-03-22T09:02:06.640Z,86.37
2023-03-22T09:03:09.538Z,86.19
2023-03-22T09:04:13.422Z,86.10
2023-03-22T09:05:16.676Z,86.07
2023-03-22T09:06:19.762Z,85.98
2023-03-22T09:07:22.823Z,85.92
2023-03-22T09:08:33.968Z,86.07
2023-03-22T09:09:41.660Z,86.12
2023-03-22T09:10:47.878Z,86.16
2023-03-22T09:11:50.927Z,86.07
2023-03-22T09:12:53.876Z,86.09
2023-03-22T09:13:56.752Z,86.24
2023-03-22T09:14:59.586Z,86.50
2023-03-22T09:16:04.250Z,86.35
2023-03-22T09:17:09.062Z,86.29
2023-03-22T09:18:12.278Z,86.39
2023-03-22T09:19:15.516Z,86.19
2023-03-22T09:20:18.807Z,86.30
2023-03-22T09:21:22.429Z,86.27
2023-03-22T09:22:52.677Z,86.47
2023-03-22T09:23:56.528Z,86.47
2023-03-22T09:25:05.053Z,86.46
2023-03-22T09:26:09.500Z,86.48
2023-03-22T09:27:12.598Z,86.47
2023-03-22T09:28:17.180Z,86.29
2023-03-22T09:29:20.604Z,86.09
2023-03-22T09:30:23.829Z,86.09
2023-03-22T09:31:27.001Z,86.19
2023-03-22T09:32:41.079Z,86.01
2023-03-22T09:33:44.196Z,85.88
2023-03-22T09:34:46.952Z,85.97
2023-03-22T09:35:50.097Z,85.91
2023-03-22T09:36:55.738Z,85.81
2023-03-22T09:38:03.585Z,85.68
2023-03-22T09:39:07.655Z,85.45
2023-03-22T09:40:11.870Z,85.68
2023-03-22T09:41:21.913Z,85.87
2023-03-22T09:42:33.015Z,85.71
2023-03-22T09:43:43.636Z,85.59
2023-03-22T09:44:49.782Z,85.69
2023-03-22T09:45:55.737Z,85.82
2023-03-22T09:47:02.201Z,85.90
2023-03-22T09:48:12.242Z,85.98
2023-03-22T09:49:21.282Z,85.49
2023-03-22T09:50:32.432Z,85.48
2023-03-22T09:51:44.843Z,85.29
2023-03-22T09:52:48.384Z,85.75
2023-03-22T09:53:51.127Z,86.24
2023-03-22T09:54:53.945Z,85.96
2023-03-22T09:56:13.908Z,86.05
2023-03-22T09:57:26.319Z,86.18
2023-03-22T09:58:55.180Z,85.92
2023-03-22T10:00:16.821Z,85.65
2023-03-22T10:01:35.238Z,85.58
2023-03-22T10:03:05.368Z,85.60
2023-03-22T10:04:19.031Z,85.42
2023-03-22T10:05:36.088Z,85.55
2023-03-22T10:06:43.309Z,85.29
2023-03-22T10:08:04.289Z,85.18
2023-03-22T10:09:19.437Z,85.34
2023-03-22T10:10:24.583Z,85.16
2023-03-22T10:11:47.232Z,85.18
2023-03-22T10:13:15.392Z,85.00
2023-03-22T10:14:41.566Z,85.12
2023-03-22T10:15:51.572Z,85.18
2023-03-22T10:16:56.611Z,84.96
2023-03-22T10:18:02.361Z,84.89
2023-03-22T10:19:24.244Z,85.02
2023-03-22T10:20:35.878Z,84.95
2023-03-22T10:21:39.092Z,85.00
2023-03-22T10:22:46.231Z,85.27
2023-03-22T10:24:04.402Z,85.27
2023-03-22T10:25:08.746Z,85.08
2023-03-22T10:26:26.404Z,85.17
2023-03-22T10:27:31.635Z,85.16
2023-03-22T10:28:34.351Z,85.21
2023-03-22T10:29:40.964Z,85.33
2023-03-22T10:30:51.017Z,85.25
2023-03-22T10:31:54.517Z,85.01
2023-03-22T10:33:01.769Z,85.01
2023-03-22T10:34:11.536Z,85.12
2023-03-22T10:35:15.997Z,85.04
2023-03-22T10:36:23.583Z,84.98
2023-03-22T10:37:35.828Z,84.89
2023-03-22T10:38:47.072Z,84.70
2023-03-22T10:39:54.366Z,84.70
2023-03-22T10:40:59.249Z,84.71
2023-03-22T10:42:05.924Z,84.69
2023-03-22T10:43:12.002Z,84.74
2023-03-22T10:44:17.390Z,84.59
2023-03-22T10:45:21.450Z,84.30
2023-03-22T10:46:33.509Z,84.29
2023-03-22T10:47:48.643Z,84.13
2023-03-22T10:48:57.301Z,84.26
2023-03-22T10:50:04.720Z,84.39
2023-03-22T10:51:08.383Z,84.27
2023-03-22T10:52:28.641Z,84.14
2023-03-22T10:53:46.017Z,84.26
2023-03-22T10:54:48.880Z,84.06
2023-03-22T10:55:51.730Z,84.16
2023-03-22T10:56:54.641Z,84.28
2023-03-22T10:58:16.614Z,84.25
2023-03-22T10:59:47.548Z,84.42
2023-03-22T11:00:57.177Z,84.62
2023-03-22T11:02:01.763Z,84.61
2023-03-22T11:03:07.143Z,84.58
2023-03-22T11:04:15.196Z,84.38
2023-03-22T11:05:30.035Z,84.36
2023-03-22T11:06:38.556Z,84.18
2023-03-22T11:07:45.288Z,84.15
2023-03-22T11:09:02.724Z,84.10
2023-03-22T11:10:08.000Z,83.90
2023-03-22T11:11:23.623Z,84.04
2023-03-22T11:12:26.438Z,84.23
2023-03-22T11:13:29.425Z,84.29
2023-03-22T11:14:37.647Z,84.14
2023-03-22T11:15:49.139Z,84.06
2023-03-22T11:16:51.991Z,84.06
2023-03-22T11:18:00.535Z,84.08
2023-03-22T11:19:03.851Z,84.08
2023-03-22T11:20:07.923Z,84.25
2023-03-22T11:21:12.649Z,84.23
2023-03-22T11:22:36.448Z,84.20
2023-03-22T11:23:46.877Z,83.94
2023-03-22T11:24:51.616Z,84.12
2023-03-22T11:25:59.220Z,84.03
2023-03-22T11:27:20.060Z,83.99
2023-03-22T11:28:31.754Z,84.18
2023-03-22T11:29:48.333Z,84.13
2023-03-22T11:31:04.164Z,84.11
2023-03-22T11:32:26.516Z,84.22
2023-03-22T11:33:29.961Z,84.24
2023-03-22T11:34:32.723Z,84.14
2023-03-22T11:35:38.881Z,84.16
2023-03-22T11:37:53.886Z,84.49
2023-03-22T11:39:02.466Z,84.46
2023-03-22T11:40:10.867Z,84.42
2023-03-22T11:41:13.582Z,84.50
2023-03-22T11:42:20.974Z,84.65
2023-03-22T11:43:28.139Z,84.44
2023-03-22T11:44:37.887Z,84.54
2023-03-22T11:45:43.344Z,84.45
2023-03-22T11:46:57.910Z,84.46
2023-03-22T11:48:03.582Z,84.35
2023-03-22T11:49:14.834Z,84.11
2023-03-22T11:50:30.380Z,83.68
2023-03-22T11:51:37.281Z,83.59
2023-03-22T11:52:40.024Z,83.45
2023-03-22T11:53:47.408Z,83.37
2023-03-22T11:54:51.238Z,83.20
2023-03-22T11:55:57.105Z,82.89
2023-03-22T11:57:04.495Z,83.00
2023-03-22T11:58:07.297Z,83.21
2023-03-22T11:59:16.659Z,83.32
2023-03-22T12:00:23.733Z,83.38
2023-03-22T12:01:38.931Z,83.26
2023-03-22T12:02:51.224Z,83.22
2023-03-22T12:03:58.076Z,83.11
2023-03-22T12:05:03.808Z,83.22
2023-03-22T12:06:22.887Z,83.18
2023-03-22T12:07:28.417Z,83.07
2023-03-22T12:08:42.872Z,83.15
2023-03-22T12:09:54.523Z,83.16
2023-03-22T12:11:07.025Z,83.11
2023-03-22T12:12:16.700Z,82.97
2023-03-22T12:13:27.048Z,82.88
2023-03-22T12:14:46.757Z,82.45
2023-03-22T12:15:56.554Z,82.61
2023-03-22T12:17:11.790Z,82.56
2023-03-22T12:18:34.431Z,82.29
2023-03-22T12:20:12.869Z,82.36
2023-03-22T12:21:16.702Z,82.21
2023-03-22T12:22:32.712Z,82.16
2023-03-22T12:23:35.941Z,81.95
2023-03-22T12:24:38.741Z,81.63
2023-03-22T12:25:46.691Z,81.43
2023-03-22T12:26:52.914Z,81.22
2023-03-22T12:28:07.201Z,81.30
2023-03-22T12:29:18.324Z,81.33
2023-03-22T12:30:25.680Z,81.49
2023-03-22T12:31:37.489Z,81.72
2023-03-22T12:32:45.271Z,81.45
2023-03-22T12:33:51.547Z,81.17
2023-03-22T12:35:09.248Z,81.21
2023-03-22T12:36:23.908Z,80.98
2023-03-22T12:37:34.931Z,80.89
2023-03-22T12:38:43.625Z,81.32
2023-03-22T12:39:51.908Z,81.46
2023-03-22T12:40:57.971Z,81.21
2023-03-22T12:42:13.437Z,80.91
2023-03-22T12:43:27.902Z,80.54
2023-03-22T12:44:39.298Z,80.50
2023-03-22T12:45:56.066Z,80.75
2023-03-22T12:47:01.331Z,80.91
2023-03-22T12:48:16.998Z,80.75
2023-03-22T12:49:44.657Z,80.61
2023-03-22T12:50:53.220Z,80.69
2023-03-22T12:52:06.497Z,80.80
2023-03-22T12:53:15.370Z,80.76
2023-03-22T12:54:23.027Z,80.60
2023-03-22T12:55:30.805Z,80.51
2023-03-22T12:56:40.277Z,80.48
2023-03-22T12:57:43.004Z,80.52
2023-03-22T12:58:54.709Z,80.42
2023-03-22T13:00:05.365Z,80.35
2023-03-22T13:01:33.553Z,80.25
2023-03-22T13:02:37.110Z,80.40
2023-03-22T13:03:52.667Z,80.51
2023-03-22T13:05:00.939Z,80.22
2023-03-22T13:06:26.066Z,80.28
2023-03-22T13:07:31.678Z,80.35
2023-03-22T13:09:16.070Z,80.48
2023-03-22T13:10:31.426Z,80.58
2023-03-22T13:11:34.940Z,80.49
2023-03-22T13:12:37.893Z,80.51
2023-03-22T13:13:43.541Z,80.47
2023-03-22T13:14:49.742Z,80.50
2023-03-22T13:16:13.474Z,79.99
2023-03-22T13:17:22.848Z,80.02
2023-03-22T13:18:38.712Z,80.39
2023-03-22T13:19:57.186Z,80.28
2023-03-22T13:21:19.289Z,80.25
2023-03-22T13:22:36.436Z,80.23
2023-03-22T13:23:54.666Z,80.26
2023-03-22T13:25:13.492Z,79.99
2023-03-22T13:26:19.084Z,80.03
2023-03-22T13:27:22.324Z,80.16
2023-03-22T13:28:26.856Z,80.12
2023-03-22T13:29:32.731Z,80.05
2023-03-22T13:30:58.114Z,80.14
2023-03-22T13:32:04.286Z,79.95
2023-03-22T13:33:10.391Z,79.97
2023-03-22T13:34:18.193Z,79.91
2023-03-22T13:35:27.985Z,79.96
2023-03-22T13:36:32.235Z,80.00
2023-03-22T13:37:46.000Z,79.85
2023-03-22T13:38:56.329Z,80.08
2023-03-22T13:40:02.363Z,80.12
2023-03-22T13:41:24.645Z,80.20
2023-03-22T13:42:38.005Z,80.16
2023-03-22T13:43:44.244Z,80.02
2023-03-22T13:44:57.067Z,79.99
2023-03-22T13:46:17.959Z,80.11
2023-03-22T13:47:45.948Z,80.08
2023-03-22T13:48:49.476Z,80.12
2023-03-22T13:50:29.069Z,80.38
2023-03-22T13:51:32.747Z,80.14
2023-03-22T13:52:40.368Z,80.08
2023-03-22T13:53:56.063Z,80.10
2023-03-22T13:54:58.983Z,80.02
2023-03-22T13:56:05.688Z,80.16
2023-03-22T13:57:37.896Z,80.05
2023-03-22T13:58:46.731Z,79.94
2023-03-22T14:00:13.405Z,79.86
2023-03-22T14:01:24.018Z,79.58
2023-03-22T14:02:35.934Z,79.59
2023-03-22T14:03:42.532Z,79.34
2023-03-22T14:05:16.642Z,79.56
2023-03-22T14:06:25.097Z,79.41
2023-03-22T14:07:46.345Z,79.43
2023-03-22T14:08:53.498Z,79.47
2023-03-22T14:10:11.366Z,79.58
2023-03-22T14:11:48.804Z,79.31
2023-03-22T14:13:00.968Z,79.05
2023-03-22T14:14:11.089Z,79.40
2023-03-22T14:15:24.603Z,79.35
2023-03-22T14:16:48.795Z,79.19
2023-03-22T14:17:59.431Z,79.40
2023-03-22T14:19:05.625Z,79.40
2023-03-22T14:20:15.762Z,79.52
2023-03-22T14:21:23.545Z,79.51
